Cochise — WDD8952 — position and weather

sailwx.info

Track history (hours):
 
Tides and Currents Weather Stations Pressure Air Temp Water Temp Dewpoint Dewpoint Depression Visibility Wind Speed Wind Dir Waves Ship Positions

Cochise

Owner: Sause Bros, Coos Bay, OR. More information available from US FCC via Universal Licensing System and Coast Guard Vessel Documentation Center.

Last reported at 2014-Oct-24 08:33 UTC. Time now 2014-Oct-24 08:43 UTC.
Position N 37°55' W 122°25'.

Length 32 m; draft 4.9 m.

Type: Towing. MMSI: 367304990.

Date/timePositionNaut miles runAvg speedWind from/ knotsBaromVisibWave heightAir tempDewpointWater temp
2014-Oct-24 08:33N 37°55' W 122°25'0 0.0
2014-Oct-24 07:33N 37°55' W 122°25'0 0.0
2014-Oct-24 06:33N 37°55' W 122°25'0 0.0
2014-Oct-24 05:33N 37°55' W 122°25'0 0.0
2014-Oct-24 04:33N 37°55' W 122°25'0 0.0
2014-Oct-24 03:33N 37°55' W 122°25'0 0.0
2014-Oct-24 02:33N 37°55' W 122°25'0 0.0
2014-Oct-24 01:33N 37°55' W 122°25'0 0.1
2014-Oct-24 00:33N 37°55' W 122°25'7 6.9
2014-Oct-23 23:33N 37°48' W 122°23'2 1.9
2014-Oct-23 22:33N 37°46' W 122°23'0 0.0
2014-Oct-23 21:32N 37°46' W 122°23'0 0.0
2014-Oct-23 20:32N 37°46' W 122°23'0 0.0
2014-Oct-23 19:32N 37°46' W 122°23'0 0.0
2014-Oct-23 18:32N 37°46' W 122°23'0 0.0
2014-Oct-23 17:32N 37°46' W 122°23'0 0.0
2014-Oct-23 16:32N 37°46' W 122°23'0 0.0
2014-Oct-23 15:32N 37°46' W 122°23'0 0.0
2014-Oct-23 14:29N 37°46' W 122°23'0 0.0
2014-Oct-23 13:32N 37°46' W 122°23'0 0.0
2014-Oct-23 12:32N 37°46' W 122°23'0 0.0
2014-Oct-23 11:32N 37°46' W 122°23'0 0.0
2014-Oct-23 10:32N 37°46' W 122°23'0 0.0
2014-Oct-23 09:32N 37°46' W 122°23'0 0.0
2014-Oct-23 08:32N 37°46' W 122°23'0 0.0
2014-Oct-23 07:32N 37°46' W 122°23'0 0.0
2014-Oct-23 06:32N 37°46' W 122°23'0 0.0
2014-Oct-23 05:32N 37°46' W 122°23'0 0.0
2014-Oct-23 04:32N 37°46' W 122°23'0 0.0
2014-Oct-23 03:32N 37°46' W 122°23'0 0.0
2014-Oct-23 02:32N 37°46' W 122°23'0 0.0
2014-Oct-23 01:32N 37°46' W 122°23'0 0.0
2014-Oct-23 00:32N 37°46' W 122°23'0 0.0
2014-Oct-22 23:32N 37°46' W 122°23'0 0.0
2014-Oct-22 22:32N 37°46' W 122°23'0 0.0
2014-Oct-22 21:32N 37°46' W 122°23'0 0.0
2014-Oct-22 20:32N 37°46' W 122°23'0 0.0
2014-Oct-22 19:32N 37°46' W 122°23'0 0.0
2014-Oct-22 18:32N 37°46' W 122°23'0 0.0
2014-Oct-22 17:32N 37°46' W 122°23'0 0.0
2014-Oct-22 16:32N 37°46' W 122°23'0 0.0
2014-Oct-22 15:32N 37°46' W 122°23'0 0.0
2014-Oct-22 14:32N 37°46' W 122°23'0 0.0
2014-Oct-22 13:32N 37°46' W 122°23'0 0.0
2014-Oct-22 12:32N 37°46' W 122°23'0 0.0
2014-Oct-22 11:32N 37°46' W 122°23'0 0.0
2014-Oct-22 10:32N 37°46' W 122°23'0 0.0
2014-Oct-22 09:32N 37°46' W 122°23'0 0.0
2014-Oct-22 08:32N 37°46' W 122°23'0 0.0
2014-Oct-22 07:32N 37°46' W 122°23'0 0.0
2014-Oct-22 06:32N 37°46' W 122°23'0 0.0
2014-Oct-22 05:32N 37°46' W 122°23'0 0.0
2014-Oct-22 04:32N 37°46' W 122°23'0 0.0
2014-Oct-22 03:32N 37°46' W 122°23'0 0.0
2014-Oct-22 02:32N 37°46' W 122°23'0 0.0
2014-Oct-22 01:32N 37°46' W 122°23'0 0.0
2014-Oct-22 00:32N 37°46' W 122°23'0 0.0
2014-Oct-21 23:32N 37°46' W 122°23'0 0.0
2014-Oct-21 22:29N 37°46' W 122°23'0 0.0
2014-Oct-21 21:32N 37°46' W 122°23'0 0.0
2014-Oct-21 20:32N 37°46' W 122°23'0 0.0
2014-Oct-21 19:32N 37°46' W 122°23'0 0.0
2014-Oct-21 18:33N 37°46' W 122°23'0 0.0
2014-Oct-21 17:33N 37°46' W 122°23'0 0.0
2014-Oct-21 16:33N 37°46' W 122°23'0 0.0
2014-Oct-21 15:33N 37°46' W 122°23'0 0.0
2014-Oct-21 14:33N 37°46' W 122°23'0 0.0
2014-Oct-21 13:33N 37°46' W 122°23'0 0.0
2014-Oct-21 12:33N 37°46' W 122°23'0 0.0
2014-Oct-21 11:33N 37°46' W 122°23'0 0.0
2014-Oct-21 10:33N 37°46' W 122°23'1 1.4
2014-Oct-21 09:33N 37°48' W 122°23'7 6.9
2014-Oct-21 08:33N 37°48' W 122°32'8 8.2
2014-Oct-21 07:33N 37°46' W 122°42'9 9.1
2014-Oct-21 06:33N 37°49' W 122°53'9 9.1
2014-Oct-21 05:33N 37°54' W 123°03'9 9.1
2014-Oct-21 04:33N 37°59' W 123°12'9 9.1
2014-Oct-21 03:33N 38°06' W 123°20'9 9.1
2014-Oct-21 02:33N 38°12' W 123°28'9 9.2
2014-Oct-21 01:33N 38°19' W 123°36'1010.1
2014-Oct-21 00:33N 38°27' W 123°44'  
2014-Oct-18 03:17N 38°22' W 123°43'5 7.5
2014-Oct-18 02:33N 38°19' W 123°38'7 7.5
2014-Oct-18 01:33N 38°14' W 123°30'7 7.4
2014-Oct-18 00:33N 38°11' W 123°22'7 7.3
2014-Oct-17 23:33N 38°05' W 123°15'7 7.3
2014-Oct-17 22:33N 37°60' W 123°09'9 9.4
2014-Oct-17 21:33N 37°54' W 122°59'19 9.3
2014-Oct-17 19:33N 37°46' W 122°38'1010.4
2014-Oct-17 18:33N 37°50' W 122°26'5 5.4
2014-Oct-17 17:34N 37°55' W 122°25'0 0.1
2014-Oct-17 16:31N 37°55' W 122°25'0 0.0
2014-Oct-17 15:28N 37°55' W 122°25'0 0.0
2014-Oct-17 14:31N 37°55' W 122°25'0 0.0
2014-Oct-17 13:31N 37°55' W 122°25'0 0.0
2014-Oct-17 12:31N 37°55' W 122°25'0 0.0
2014-Oct-17 11:31N 37°55' W 122°25'0 0.0
2014-Oct-17 10:31N 37°55' W 122°25'0 0.0
2014-Oct-17 09:31N 37°55' W 122°25'0 0.0
2014-Oct-17 08:31N 37°55' W 122°25'0 0.0
2014-Oct-17 07:31N 37°55' W 122°25'0 0.0
2014-Oct-17 06:31N 37°55' W 122°25'0 0.0
2014-Oct-17 05:31N 37°55' W 122°25'0 0.0
2014-Oct-17 04:31N 37°55' W 122°25'0 0.0
2014-Oct-17 03:31N 37°55' W 122°25'0 0.0
2014-Oct-17 02:28N 37°55' W 122°25'0 0.0
2014-Oct-17 01:28N 37°55' W 122°25'0 0.0
2014-Oct-17 00:31N 37°55' W 122°25'0 0.0
2014-Oct-16 23:31N 37°55' W 122°25'1 1.1
2014-Oct-16 22:33N 37°55' W 122°26'1 0.5
2014-Oct-16 21:32N 37°54' W 122°26'0 0.0
2014-Oct-16 20:32N 37°54' W 122°26'0 0.0
2014-Oct-16 19:32N 37°54' W 122°26'0 0.0
2014-Oct-16 18:32N 37°54' W 122°26'0 0.0
2014-Oct-16 17:32N 37°54' W 122°26'0 0.1
2014-Oct-16 16:29N 37°54' W 122°26'0 0.0
2014-Oct-16 15:32N 37°54' W 122°26'2 1.6
2014-Oct-16 14:33N 37°53' W 122°25'10 9.8
2014-Oct-16 13:33N 37°47' W 122°35'10 9.6
2014-Oct-16 12:33N 37°38' W 122°40'1110.3
2014-Oct-16 11:31N 37°27' W 122°40'1210.1
2014-Oct-16 10:21N 37°15' W 122°40'1010.1
2014-Oct-16 09:19N 37°05' W 122°39'2810.1
2014-Oct-16 06:31N 36°37' W 122°34'10 9.8
2014-Oct-16 05:30N 36°28' W 122°29'14 9.8
2014-Oct-16 04:07N 36°16' W 122°22'6 9.9
2014-Oct-16 03:33N 36°11' W 122°19'10 9.6
2014-Oct-16 02:29N 36°01' W 122°13'13 9.7
2014-Oct-16 01:09N 35°49' W 122°07'7 9.8
2014-Oct-16 00:25N 35°43' W 122°03'223 9.0
2014-Oct-14 23:33N 33°45' W 118°13'1 1.0
2014-Oct-14 22:33N 33°46' W 118°13'0 0.0
2014-Oct-14 21:33N 33°46' W 118°13'0 0.0
2014-Oct-14 20:33N 33°46' W 118°13'0 0.0
2014-Oct-14 19:33N 33°46' W 118°13'0 0.2
2014-Oct-14 18:33N 33°46' W 118°13'3 2.9
2014-Oct-14 17:32N 33°45' W 118°16'1 0.7
2014-Oct-14 16:33N 33°45' W 118°17'0 0.0
2014-Oct-14 15:33N 33°45' W 118°17'0 0.0
2014-Oct-14 14:21N 33°45' W 118°17'0 0.0
2014-Oct-14 13:33N 33°45' W 118°17'0 0.0
2014-Oct-14 12:33N 33°45' W 118°17'0 0.0
2014-Oct-14 11:33N 33°45' W 118°17'0 0.0
2014-Oct-14 10:33N 33°45' W 118°17'0 0.0
2014-Oct-14 09:24N 33°45' W 118°17'  
Track history (hours):
 
Tides and Currents Weather Stations Pressure Air Temp Water Temp Dewpoint Dewpoint Depression Visibility Wind Speed Wind Dir Waves Ship Positions

Cochise

Owner: Sause Bros, Coos Bay, OR. More information available from US FCC via Universal Licensing System and Coast Guard Vessel Documentation Center.

Last reported at 2014-Oct-24 08:33 UTC. Time now 2014-Oct-24 08:43 UTC.
Position N 37°55' W 122°25'.

Length 32 m; draft 4.9 m.

Type: Towing. MMSI: 367304990.

Date/timePositionNaut miles runAvg speedWind from/ knotsBaromVisibWave heightAir tempDewpointWater temp
2014-Oct-24 08:33N 37°55' W 122°25'0 0.0
2014-Oct-24 07:33N 37°55' W 122°25'0 0.0
2014-Oct-24 06:33N 37°55' W 122°25'0 0.0
2014-Oct-24 05:33N 37°55' W 122°25'0 0.0
2014-Oct-24 04:33N 37°55' W 122°25'0 0.0
2014-Oct-24 03:33N 37°55' W 122°25'0 0.0
2014-Oct-24 02:33N 37°55' W 122°25'0 0.0
2014-Oct-24 01:33N 37°55' W 122°25'0 0.1
2014-Oct-24 00:33N 37°55' W 122°25'7 6.9
2014-Oct-23 23:33N 37°48' W 122°23'2 1.9
2014-Oct-23 22:33N 37°46' W 122°23'0 0.0
2014-Oct-23 21:32N 37°46' W 122°23'0 0.0
2014-Oct-23 20:32N 37°46' W 122°23'0 0.0
2014-Oct-23 19:32N 37°46' W 122°23'0 0.0
2014-Oct-23 18:32N 37°46' W 122°23'0 0.0
2014-Oct-23 17:32N 37°46' W 122°23'0 0.0
2014-Oct-23 16:32N 37°46' W 122°23'0 0.0
2014-Oct-23 15:32N 37°46' W 122°23'0 0.0
2014-Oct-23 14:29N 37°46' W 122°23'0 0.0
2014-Oct-23 13:32N 37°46' W 122°23'0 0.0
2014-Oct-23 12:32N 37°46' W 122°23'0 0.0
2014-Oct-23 11:32N 37°46' W 122°23'0 0.0
2014-Oct-23 10:32N 37°46' W 122°23'0 0.0
2014-Oct-23 09:32N 37°46' W 122°23'0 0.0
2014-Oct-23 08:32N 37°46' W 122°23'0 0.0
2014-Oct-23 07:32N 37°46' W 122°23'0 0.0
2014-Oct-23 06:32N 37°46' W 122°23'0 0.0
2014-Oct-23 05:32N 37°46' W 122°23'0 0.0
2014-Oct-23 04:32N 37°46' W 122°23'0 0.0
2014-Oct-23 03:32N 37°46' W 122°23'0 0.0
2014-Oct-23 02:32N 37°46' W 122°23'0 0.0
2014-Oct-23 01:32N 37°46' W 122°23'0 0.0
2014-Oct-23 00:32N 37°46' W 122°23'0 0.0
2014-Oct-22 23:32N 37°46' W 122°23'0 0.0
2014-Oct-22 22:32N 37°46' W 122°23'0 0.0
2014-Oct-22 21:32N 37°46' W 122°23'0 0.0
2014-Oct-22 20:32N 37°46' W 122°23'0 0.0
2014-Oct-22 19:32N 37°46' W 122°23'0 0.0
2014-Oct-22 18:32N 37°46' W 122°23'0 0.0
2014-Oct-22 17:32N 37°46' W 122°23'0 0.0
2014-Oct-22 16:32N 37°46' W 122°23'0 0.0
2014-Oct-22 15:32N 37°46' W 122°23'0 0.0
2014-Oct-22 14:32N 37°46' W 122°23'0 0.0
2014-Oct-22 13:32N 37°46' W 122°23'0 0.0
2014-Oct-22 12:32N 37°46' W 122°23'0 0.0
2014-Oct-22 11:32N 37°46' W 122°23'0 0.0
2014-Oct-22 10:32N 37°46' W 122°23'0 0.0
2014-Oct-22 09:32N 37°46' W 122°23'0 0.0
2014-Oct-22 08:32N 37°46' W 122°23'0 0.0
2014-Oct-22 07:32N 37°46' W 122°23'0 0.0
2014-Oct-22 06:32N 37°46' W 122°23'0 0.0
2014-Oct-22 05:32N 37°46' W 122°23'0 0.0
2014-Oct-22 04:32N 37°46' W 122°23'0 0.0
2014-Oct-22 03:32N 37°46' W 122°23'0 0.0
2014-Oct-22 02:32N 37°46' W 122°23'0 0.0
2014-Oct-22 01:32N 37°46' W 122°23'0 0.0
2014-Oct-22 00:32N 37°46' W 122°23'0 0.0
2014-Oct-21 23:32N 37°46' W 122°23'0 0.0
2014-Oct-21 22:29N 37°46' W 122°23'0 0.0
2014-Oct-21 21:32N 37°46' W 122°23'0 0.0
2014-Oct-21 20:32N 37°46' W 122°23'0 0.0
2014-Oct-21 19:32N 37°46' W 122°23'0 0.0
2014-Oct-21 18:33N 37°46' W 122°23'0 0.0
2014-Oct-21 17:33N 37°46' W 122°23'0 0.0
2014-Oct-21 16:33N 37°46' W 122°23'0 0.0
2014-Oct-21 15:33N 37°46' W 122°23'0 0.0
2014-Oct-21 14:33N 37°46' W 122°23'0 0.0
2014-Oct-21 13:33N 37°46' W 122°23'0 0.0
2014-Oct-21 12:33N 37°46' W 122°23'0 0.0
2014-Oct-21 11:33N 37°46' W 122°23'0 0.0
2014-Oct-21 10:33N 37°46' W 122°23'1 1.4
2014-Oct-21 09:33N 37°48' W 122°23'7 6.9
2014-Oct-21 08:33N 37°48' W 122°32'8 8.2
2014-Oct-21 07:33N 37°46' W 122°42'9 9.1
2014-Oct-21 06:33N 37°49' W 122°53'9 9.1
2014-Oct-21 05:33N 37°54' W 123°03'9 9.1
2014-Oct-21 04:33N 37°59' W 123°12'9 9.1
2014-Oct-21 03:33N 38°06' W 123°20'9 9.1
2014-Oct-21 02:33N 38°12' W 123°28'9 9.2
2014-Oct-21 01:33N 38°19' W 123°36'1010.1
2014-Oct-21 00:33N 38°27' W 123°44'  
2014-Oct-18 03:17N 38°22' W 123°43'5 7.5
2014-Oct-18 02:33N 38°19' W 123°38'7 7.5
2014-Oct-18 01:33N 38°14' W 123°30'7 7.4
2014-Oct-18 00:33N 38°11' W 123°22'7 7.3
2014-Oct-17 23:33N 38°05' W 123°15'7 7.3
2014-Oct-17 22:33N 37°60' W 123°09'9 9.4
2014-Oct-17 21:33N 37°54' W 122°59'19 9.3
2014-Oct-17 19:33N 37°46' W 122°38'1010.4
2014-Oct-17 18:33N 37°50' W 122°26'5 5.4
2014-Oct-17 17:34N 37°55' W 122°25'0 0.1
2014-Oct-17 16:31N 37°55' W 122°25'0 0.0
2014-Oct-17 15:28N 37°55' W 122°25'0 0.0
2014-Oct-17 14:31N 37°55' W 122°25'0 0.0
2014-Oct-17 13:31N 37°55' W 122°25'0 0.0
2014-Oct-17 12:31N 37°55' W 122°25'0 0.0
2014-Oct-17 11:31N 37°55' W 122°25'0 0.0
2014-Oct-17 10:31N 37°55' W 122°25'0 0.0
2014-Oct-17 09:31N 37°55' W 122°25'0 0.0
2014-Oct-17 08:31N 37°55' W 122°25'0 0.0
2014-Oct-17 07:31N 37°55' W 122°25'0 0.0
2014-Oct-17 06:31N 37°55' W 122°25'0 0.0
2014-Oct-17 05:31N 37°55' W 122°25'0 0.0
2014-Oct-17 04:31N 37°55' W 122°25'0 0.0
2014-Oct-17 03:31N 37°55' W 122°25'0 0.0
2014-Oct-17 02:28N 37°55' W 122°25'0 0.0
2014-Oct-17 01:28N 37°55' W 122°25'0 0.0
2014-Oct-17 00:31N 37°55' W 122°25'0 0.0
2014-Oct-16 23:31N 37°55' W 122°25'1 1.1
2014-Oct-16 22:33N 37°55' W 122°26'1 0.5
2014-Oct-16 21:32N 37°54' W 122°26'0 0.0
2014-Oct-16 20:32N 37°54' W 122°26'0 0.0
2014-Oct-16 19:32N 37°54' W 122°26'0 0.0
2014-Oct-16 18:32N 37°54' W 122°26'0 0.0
2014-Oct-16 17:32N 37°54' W 122°26'0 0.1
2014-Oct-16 16:29N 37°54' W 122°26'0 0.0
2014-Oct-16 15:32N 37°54' W 122°26'2 1.6
2014-Oct-16 14:33N 37°53' W 122°25'10 9.8
2014-Oct-16 13:33N 37°47' W 122°35'10 9.6
2014-Oct-16 12:33N 37°38' W 122°40'1110.3
2014-Oct-16 11:31N 37°27' W 122°40'1210.1
2014-Oct-16 10:21N 37°15' W 122°40'1010.1
2014-Oct-16 09:19N 37°05' W 122°39'2810.1
2014-Oct-16 06:31N 36°37' W 122°34'10 9.8
2014-Oct-16 05:30N 36°28' W 122°29'14 9.8
2014-Oct-16 04:07N 36°16' W 122°22'6 9.9
2014-Oct-16 03:33N 36°11' W 122°19'10 9.6
2014-Oct-16 02:29N 36°01' W 122°13'13 9.7
2014-Oct-16 01:09N 35°49' W 122°07'7 9.8
2014-Oct-16 00:25N 35°43' W 122°03'223 9.0
2014-Oct-14 23:33N 33°45' W 118°13'1 1.0
2014-Oct-14 22:33N 33°46' W 118°13'0 0.0
2014-Oct-14 21:33N 33°46' W 118°13'0 0.0
2014-Oct-14 20:33N 33°46' W 118°13'0 0.0
2014-Oct-14 19:33N 33°46' W 118°13'0 0.2
2014-Oct-14 18:33N 33°46' W 118°13'3 2.9
2014-Oct-14 17:32N 33°45' W 118°16'1 0.7
2014-Oct-14 16:33N 33°45' W 118°17'0 0.0
2014-Oct-14 15:33N 33°45' W 118°17'0 0.0
2014-Oct-14 14:21N 33°45' W 118°17'0 0.0
2014-Oct-14 13:33N 33°45' W 118°17'0 0.0
2014-Oct-14 12:33N 33°45' W 118°17'0 0.0
2014-Oct-14 11:33N 33°45' W 118°17'0 0.0
2014-Oct-14 10:33N 33°45' W 118°17'0 0.0
2014-Oct-14 09:24N 33°45' W 118°17'  

Dump ship's entire track history